Time;durP1;ratioP1;P1;durP2;ratioP2;P2;SDS_P1;SDS_P2;PMS_P1;PMS_P2;Temp;Humidity;BMP_temperature;BMP_pressure;BME280_temperature;BME280_humidity;BME280_pressure;Samples;Min_cycle;Max_cycle;Signal;HPM_P1;HPM_P2
2021/09/16 00:02:11;;;;;;;7.00;2.55;;;;;;;22.71;62.95;101606.41;5065826;28;20112;-65
2021/09/16 00:04:37;;;;;;;4.28;1.80;;;;;;;22.71;62.79;101603.72;5066353;28;20091;-65
2021/09/16 00:07:03;;;;;;;4.75;2.20;;;;;;;22.71;62.87;101612.56;5066036;28;20032;-65
2021/09/16 00:09:29;;;;;;;6.15;2.40;;;;;;;22.71;62.67;101603.72;5063251;28;20055;-66
2021/09/16 00:11:54;;;;;;;4.55;2.05;;;;;;;22.70;62.76;101602.91;5067315;28;20045;-65
2021/09/16 00:14:21;;;;;;;5.80;2.65;;;;;;;22.70;62.83;101594.88;5067576;28;20118;-66
2021/09/16 00:16:47;;;;;;;4.00;1.98;;;;;;;22.71;62.70;101596.53;5066132;28;20071;-65
2021/09/16 00:19:13;;;;;;;7.00;2.55;;;;;;;22.71;62.80;101601.06;5061177;28;20041;-65
2021/09/16 00:21:38;;;;;;;5.07;2.30;;;;;;;22.70;62.57;101599.41;5067028;28;20589;-65
2021/09/16 00:24:04;;;;;;;3.88;1.95;;;;;;;22.71;62.74;101603.72;5066410;28;20040;-66
2021/09/16 00:26:30;;;;;;;4.22;2.05;;;;;;;22.70;62.73;101610.94;5066800;28;20532;-66
2021/09/16 00:28:55;;;;;;;4.80;2.00;;;;;;;22.70;62.50;101610.09;5067527;28;20099;-65
2021/09/16 00:31:21;;;;;;;4.97;1.92;;;;;;;22.70;62.66;101591.38;5062193;28;20029;-66
2021/09/16 00:33:46;;;;;;;3.67;1.85;;;;;;;22.68;62.56;101593.44;5066221;28;20029;-66
2021/09/16 00:36:12;;;;;;;3.97;1.90;;;;;;;22.70;62.55;101599.41;5065257;28;20411;-66
2021/09/16 00:38:37;;;;;;;3.63;1.85;;;;;;;22.70;62.44;101599.41;5065969;28;20048;-66
2021/09/16 00:41:04;;;;;;;5.47;2.17;;;;;;;22.68;62.54;101591.59;5069308;28;20052;-66
2021/09/16 00:43:29;;;;;;;4.13;2.03;;;;;;;22.68;62.43;101588.91;5067794;28;20067;-66
2021/09/16 00:46:03;;;;;;;3.50;1.88;;;;;;;22.66;62.69;101582.94;5070944;28;20121;-65
2021/09/16 00:48:29;;;;;;;4.25;1.80;;;;;;;22.67;62.33;101579.22;5071341;28;20036;-66
2021/09/16 00:50:54;;;;;;;5.30;2.35;;;;;;;22.67;62.44;101581.91;5070296;28;20102;-65
2021/09/16 00:53:20;;;;;;;4.18;1.83;;;;;;;22.68;62.30;101585.41;5071054;28;20512;-65
2021/09/16 00:55:46;;;;;;;2.75;1.60;;;;;;;22.68;62.45;101583.56;5061652;28;20425;-66
2021/09/16 00:58:12;;;;;;;4.22;1.80;;;;;;;22.68;62.53;101583.56;5069848;28;20037;-65
2021/09/16 01:00:38;;;;;;;4.35;1.80;;;;;;;22.68;62.18;101586.22;5069009;28;20032;-66
2021/09/16 01:03:03;;;;;;;4.35;2.08;;;;;;;22.67;62.49;101584.59;5069746;28;20080;-66
2021/09/16 01:05:29;;;;;;;4.78;1.88;;;;;;;22.67;62.26;101584.59;5068040;28;20071;-65
2021/09/16 01:07:58;;;;;;;3.55;1.80;;;;;;;22.67;62.23;101587.25;5065699;28;20033;-65
2021/09/16 01:10:23;;;;;;;3.65;1.90;;;;;;;22.68;62.26;101586.22;5068906;28;20056;-66
2021/09/16 01:12:49;;;;;;;3.85;1.83;;;;;;;22.67;62.54;101584.59;5070435;28;20044;-66
2021/09/16 01:15:15;;;;;;;4.47;1.75;;;;;;;22.67;62.36;101589.94;5070393;28;20040;-65
2021/09/16 01:17:41;;;;;;;3.10;1.80;;;;;;;22.67;62.11;101581.09;5068859;28;20043;-66
2021/09/16 01:20:07;;;;;;;3.72;1.60;;;;;;;22.67;62.40;101594.47;5043419;28;20033;-65
2021/09/16 01:22:34;;;;;;;3.05;1.48;;;;;;;22.67;62.26;101592.59;5065214;28;20032;-66
2021/09/16 01:25:00;;;;;;;4.65;1.75;;;;;;;22.67;62.35;101603.31;5069174;28;20048;-66
2021/09/16 01:27:25;;;;;;;2.50;1.50;;;;;;;22.68;62.28;101609.47;5070620;28;20045;-67
2021/09/16 01:29:51;;;;;;;3.45;1.80;;;;;;;22.68;62.19;101606.81;5069827;28;20077;-66
2021/09/16 01:32:16;;;;;;;4.15;1.63;;;;;;;22.67;62.46;101603.31;5063102;28;20480;-66
2021/09/16 01:34:42;;;;;;;5.03;1.67;;;;;;;22.68;62.28;101609.47;5068712;28;20095;-66
2021/09/16 01:37:07;;;;;;;3.63;1.50;;;;;;;22.67;62.47;101603.31;5070011;28;20110;-65
2021/09/16 01:39:34;;;;;;;3.58;1.60;;;;;;;22.67;62.42;101595.28;5069636;28;20044;-66
2021/09/16 01:42:00;;;;;;;2.92;1.55;;;;;;;22.67;62.36;101605.97;5068936;28;20442;-66
2021/09/16 01:44:26;;;;;;;3.97;1.60;;;;;;;22.68;62.45;101604.94;5063898;28;20040;-66
2021/09/16 01:46:51;;;;;;;3.35;1.70;;;;;;;22.68;62.53;101604.94;5069016;28;20260;-66
2021/09/16 01:49:16;;;;;;;3.45;1.67;;;;;;;22.66;62.53;101593.63;5068222;28;20165;-65
2021/09/16 01:51:42;;;;;;;3.08;1.35;;;;;;;22.67;62.38;101594.47;5050936;28;20094;-66
2021/09/16 01:54:07;;;;;;;3.53;1.38;;;;;;;22.68;62.36;101593.44;5069814;28;20017;-65
2021/09/16 01:56:33;;;;;;;3.85;1.40;;;;;;;22.67;62.39;101592.59;5069554;28;20033;-66
2021/09/16 01:58:59;;;;;;;3.47;1.52;;;;;;;22.67;62.32;101594.47;5058268;28;20050;-66
2021/09/16 02:01:25;;;;;;;3.10;1.50;;;;;;;22.67;62.38;101597.97;5067481;28;20119;-66
2021/09/16 02:03:52;;;;;;;4.15;1.60;;;;;;;22.67;62.45;101594.47;5068086;28;20054;-66
2021/09/16 02:06:20;;;;;;;3.65;1.48;;;;;;;22.67;62.14;101591.78;5069156;28;20725;-66
2021/09/16 02:08:46;;;;;;;3.67;1.45;;;;;;;22.66;62.17;101590.97;5069196;28;20379;-66
2021/09/16 02:11:11;;;;;;;5.53;2.30;;;;;;;22.66;62.27;101588.28;5057786;28;20032;-66
2021/09/16 02:13:37;;;;;;;2.70;1.30;;;;;;;22.67;62.15;101589.09;5068068;28;20467;-66
2021/09/16 02:16:03;;;;;;;3.53;1.63;;;;;;;22.66;62.25;101596.31;5065428;28;20032;-66
2021/09/16 02:18:28;;;;;;;2.83;1.30;;;;;;;22.67;62.39;101597.13;5069163;28;20040;-66
2021/09/16 02:20:54;;;;;;;2.63;1.50;;;;;;;22.67;62.27;101605.16;5068058;28;20148;-66
2021/09/16 02:23:19;;;;;;;2.15;1.23;;;;;;;22.67;62.10;101600.63;5069219;28;20135;-66
2021/09/16 02:25:45;;;;;;;4.32;1.45;;;;;;;22.65;62.24;101600.00;5062434;28;20033;-66
2021/09/16 02:28:10;;;;;;;2.63;1.42;;;;;;;22.66;61.92;101604.31;5068271;28;20141;-66
2021/09/16 02:30:36;;;;;;;3.75;1.70;;;;;;;22.66;62.01;101593.63;5066909;28;20032;-66
2021/09/16 02:33:04;;;;;;;3.50;1.35;;;;;;;22.65;62.23;101600.00;5068700;28;20591;-68
2021/09/16 02:35:31;;;;;;;2.75;1.40;;;;;;;22.66;61.95;101592.81;5066362;28;20170;-66
2021/09/16 02:37:56;;;;;;;3.72;1.40;;;;;;;22.66;62.09;101598.16;5069042;28;20044;-66
2021/09/16 02:40:22;;;;;;;3.67;1.20;;;;;;;22.65;61.79;101591.16;5068940;28;20442;-66
2021/09/16 02:42:47;;;;;;;3.70;1.55;;;;;;;22.66;62.15;101592.81;5068732;28;20031;-66
2021/09/16 02:45:12;;;;;;;2.97;1.38;;;;;;;22.65;62.06;101601.84;5066864;28;20177;-65
2021/09/16 02:47:38;;;;;;;1.98;1.20;;;;;;;22.64;61.78;101603.69;5067496;28;20379;-66
2021/09/16 02:50:04;;;;;;;2.90;1.40;;;;;;;22.64;61.71;101601.03;5049535;28;20040;-66
2021/09/16 02:52:29;;;;;;;3.30;1.50;;;;;;;22.65;62.09;101591.16;5068002;28;20048;-65
2021/09/16 02:54:55;;;;;;;2.72;1.33;;;;;;;22.64;61.96;101582.31;5048565;28;20036;-65
2021/09/16 02:57:20;;;;;;;3.60;1.50;;;;;;;22.65;61.86;101577.78;5063172;28;20046;-65
2021/09/16 02:59:46;;;;;;;2.95;1.40;;;;;;;22.63;61.98;101582.50;5067735;28;20036;-65
2021/09/16 03:02:11;;;;;;;4.63;1.52;;;;;;;22.65;61.83;101583.97;5056796;28;20112;-64
2021/09/16 03:04:37;;;;;;;3.78;1.52;;;;;;;22.64;62.09;101578.81;5068226;28;20033;-65
2021/09/16 03:07:02;;;;;;;3.15;1.42;;;;;;;22.64;62.05;101576.13;5067846;28;20042;-65
2021/09/16 03:09:28;;;;;;;2.95;1.35;;;;;;;22.64;61.87;101568.94;5064577;28;20048;-65
2021/09/16 03:11:53;;;;;;;3.60;1.52;;;;;;;22.63;61.86;101564.63;5067827;28;20056;-64
2021/09/16 03:14:19;;;;;;;2.25;1.10;;;;;;;22.63;61.69;101564.63;5054450;28;20377;-65
2021/09/16 03:16:44;;;;;;;2.50;1.25;;;;;;;22.63;61.75;101561.13;5067534;28;20190;-65
2021/09/16 03:19:10;;;;;;;3.40;1.23;;;;;;;22.63;61.81;101561.13;5066627;28;20056;-65
2021/09/16 03:21:35;;;;;;;2.78;1.33;;;;;;;22.63;61.69;101558.44;5062729;28;20051;-65
2021/09/16 03:24:01;;;;;;;2.83;1.20;;;;;;;22.63;61.64;101553.91;5068412;28;20040;-64
2021/09/16 03:26:27;;;;;;;3.30;1.55;;;;;;;22.63;61.48;101555.78;5054824;28;20480;-65
2021/09/16 03:28:52;;;;;;;3.25;1.17;;;;;;;22.63;61.68;101556.59;5068080;28;20103;-65
2021/09/16 03:31:18;;;;;;;3.50;1.05;;;;;;;22.62;61.52;101549.59;5067326;28;20119;-64
2021/09/16 03:33:43;;;;;;;2.05;1.10;;;;;;;22.62;61.87;101554.94;5068511;28;20360;-65
2021/09/16 03:36:09;;;;;;;4.13;1.50;;;;;;;22.62;61.51;101554.13;5066571;28;20048;-65
2021/09/16 03:38:34;;;;;;;3.08;1.30;;;;;;;22.62;61.73;101556.78;5056674;28;20782;-65
2021/09/16 03:41:00;;;;;;;2.20;1.20;;;;;;;22.61;61.49;101555.97;5068030;28;20059;-65
2021/09/16 03:43:25;;;;;;;3.10;1.20;;;;;;;22.62;61.43;101551.44;5068077;28;20039;-64
2021/09/16 03:45:51;;;;;;;2.20;1.23;;;;;;;22.62;61.41;101548.78;5067412;28;20040;-65
2021/09/16 03:48:16;;;;;;;1.90;1.05;;;;;;;22.61;61.81;101547.94;5052717;28;20457;-65
2021/09/16 03:50:42;;;;;;;2.80;1.30;;;;;;;22.61;61.64;101552.47;5057922;28;20041;-65
2021/09/16 03:53:08;;;;;;;2.38;1.17;;;;;;;22.61;61.40;101552.47;5068162;28;20033;-65
2021/09/16 03:55:33;;;;;;;2.75;1.27;;;;;;;22.61;61.64;101550.63;5067933;28;20040;-64
2021/09/16 03:57:59;;;;;;;2.83;1.08;;;;;;;22.60;61.74;101550.81;5067926;28;20055;-65
2021/09/16 04:00:25;;;;;;;2.50;1.30;;;;;;;22.60;61.54;101548.16;5065399;28;20138;-64
2021/09/16 04:02:50;;;;;;;3.47;1.40;;;;;;;22.60;61.44;101551.66;5062391;28;20738;-65
2021/09/16 04:05:15;;;;;;;2.45;1.20;;;;;;;22.60;61.35;101543.63;5066874;28;20037;-65
2021/09/16 04:07:41;;;;;;;2.75;1.20;;;;;;;22.60;61.51;101546.31;5067625;28;20044;-65
2021/09/16 04:10:08;;;;;;;2.55;1.10;;;;;;;22.60;61.54;101543.63;5067597;28;20503;-65
2021/09/16 04:12:34;;;;;;;3.17;1.23;;;;;;;22.60;61.61;101543.63;5067828;28;20043;-65
2021/09/16 04:14:59;;;;;;;3.47;1.27;;;;;;;22.60;61.61;101537.47;5063006;28;20033;-65
2021/09/16 04:17:25;;;;;;;3.22;1.52;;;;;;;22.60;61.56;101542.81;5070341;28;20369;-64
2021/09/16 04:19:50;;;;;;;1.73;0.85;;;;;;;22.60;61.68;101540.94;5071413;28;20051;-65
2021/09/16 04:22:16;;;;;;;2.22;1.10;;;;;;;22.60;61.45;101540.94;5071054;28;20055;-65
2021/09/16 04:24:43;;;;;;;2.35;1.13;;;;;;;22.59;61.35;101541.97;5071612;28;20046;-65
2021/09/16 04:27:11;;;;;;;2.92;1.33;;;;;;;22.59;61.44;101539.31;5067873;28;20036;-65
2021/09/16 04:29:37;;;;;;;2.10;1.00;;;;;;;22.60;61.36;101545.47;5057931;28;20033;-65
2021/09/16 04:32:03;;;;;;;2.13;1.08;;;;;;;22.60;61.29;101543.63;5071353;28;20032;-65
2021/09/16 04:34:29;;;;;;;2.80;1.00;;;;;;;22.60;61.31;101550.81;5071486;28;20035;-65
2021/09/16 04:36:54;;;;;;;2.20;1.10;;;;;;;22.60;61.25;101545.47;5070713;28;20123;-65
2021/09/16 04:39:20;;;;;;;2.50;1.15;;;;;;;22.59;61.54;101555.34;5069360;28;20086;-64
2021/09/16 04:41:45;;;;;;;1.77;0.98;;;;;;;22.59;61.22;101550.00;5066524;28;20032;-65
2021/09/16 04:44:11;;;;;;;2.83;1.30;;;;;;;22.58;61.59;101551.03;5071082;28;20459;-65
2021/09/16 04:46:36;;;;;;;3.22;1.25;;;;;;;22.58;61.53;101545.69;5056621;28;20040;-65
2021/09/16 04:49:01;;;;;;;1.88;1.10;;;;;;;22.58;61.30;101545.69;5069876;28;20032;-65
2021/09/16 04:51:27;;;;;;;2.78;1.25;;;;;;;22.57;61.37;101541.34;5065473;28;20060;-65
2021/09/16 04:53:52;;;;;;;2.33;0.90;;;;;;;22.58;61.17;101537.66;5071128;28;20119;-64
2021/09/16 04:56:18;;;;;;;2.75;1.10;;;;;;;22.58;61.38;101534.97;5070956;28;20040;-64
2021/09/16 04:58:43;;;;;;;2.97;1.20;;;;;;;22.58;61.33;101528.81;5054627;28;20063;-65
2021/09/16 05:01:09;;;;;;;2.70;1.30;;;;;;;22.57;61.42;101533.34;5065902;28;20143;-65
2021/09/16 05:03:34;;;;;;;2.53;1.02;;;;;;;22.58;61.53;101537.66;5064848;28;20054;-65
2021/09/16 05:06:00;;;;;;;2.70;1.05;;;;;;;22.57;61.10;101535.19;5067944;28;20036;-65
2021/09/16 05:08:26;;;;;;;3.03;1.02;;;;;;;22.57;61.20;101541.34;5067194;28;20032;-65
2021/09/16 05:10:51;;;;;;;2.30;1.20;;;;;;;22.57;61.42;101544.03;5047787;28;20055;-65
2021/09/16 05:13:17;;;;;;;2.30;1.15;;;;;;;22.57;61.39;101544.03;5060762;28;20068;-65
2021/09/16 05:15:42;;;;;;;3.38;1.10;;;;;;;22.57;61.21;101543.22;5067046;28;20090;-65
2021/09/16 05:18:08;;;;;;;3.63;1.20;;;;;;;22.57;61.36;101548.56;5069216;28;20025;-65
2021/09/16 05:20:35;;;;;;;2.13;1.20;;;;;;;22.57;61.15;101537.84;5069722;28;20067;-65
2021/09/16 05:23:00;;;;;;;3.58;1.20;;;;;;;22.56;61.15;101530.84;5070315;28;20039;-65
2021/09/16 05:25:26;;;;;;;3.58;1.08;;;;;;;22.56;61.14;101531.66;5068254;28;20040;-65
2021/09/16 05:27:52;;;;;;;2.28;1.17;;;;;;;22.56;61.31;101531.66;5068489;28;20479;-65
2021/09/16 05:30:18;;;;;;;2.67;1.15;;;;;;;22.57;60.99;101532.50;5070244;28;20044;-64
2021/09/16 05:32:44;;;;;;;4.53;1.38;;;;;;;22.56;61.06;101534.31;5069983;28;20028;-65
2021/09/16 05:35:10;;;;;;;2.70;1.23;;;;;;;22.57;61.08;101540.53;5069509;28;20059;-65
2021/09/16 05:37:37;;;;;;;1.92;1.08;;;;;;;22.56;61.10;101547.69;5068074;28;20051;-65
2021/09/16 05:40:03;;;;;;;1.73;0.90;;;;;;;22.56;60.92;101547.69;5062241;28;20185;-65
2021/09/16 05:42:29;;;;;;;1.95;1.00;;;;;;;22.55;61.10;101543.38;5064580;28;20041;-65
2021/09/16 05:44:55;;;;;;;1.80;0.90;;;;;;;22.56;60.95;101544.19;5068122;28;20036;-65
2021/09/16 05:47:21;;;;;;;3.28;1.20;;;;;;;22.55;61.16;101547.91;5060662;28;20036;-65
2021/09/16 05:49:46;;;;;;;2.25;1.08;;;;;;;22.57;60.92;101545.88;5055991;28;20033;-65
2021/09/16 05:52:12;;;;;;;2.70;0.95;;;;;;;22.55;61.15;101546.06;5052025;28;20041;-65
2021/09/16 05:54:38;;;;;;;2.22;0.90;;;;;;;22.55;61.19;101545.22;5070009;28;20037;-65
2021/09/16 05:57:04;;;;;;;2.03;0.90;;;;;;;22.54;60.89;101552.44;5068471;28;20032;-65
2021/09/16 05:59:30;;;;;;;2.42;1.10;;;;;;;22.54;61.25;101549.75;5069985;28;20041;-65
2021/09/16 06:01:56;;;;;;;3.05;1.10;;;;;;;22.55;61.15;101551.41;5050160;28;20044;-65
2021/09/16 06:04:21;;;;;;;2.90;1.45;;;;;;;22.54;61.05;101547.06;5068351;28;20033;-65
2021/09/16 06:06:47;;;;;;;2.92;1.00;;;;;;;22.54;61.02;101546.25;5067724;28;20039;-65
2021/09/16 06:09:12;;;;;;;3.25;1.00;;;;;;;22.55;61.17;101547.91;5048358;28;20037;-65
2021/09/16 06:11:38;;;;;;;3.55;1.60;;;;;;;22.54;61.13;101549.75;5062006;28;20035;-65
2021/09/16 06:14:04;;;;;;;2.40;1.10;;;;;;;22.54;61.19;101540.91;5061392;28;20041;-64
2021/09/16 06:16:29;;;;;;;2.38;1.20;;;;;;;22.54;61.13;101551.59;5068020;28;20040;-65
2021/09/16 06:18:55;;;;;;;3.42;1.20;;;;;;;22.53;60.96;101548.09;5069249;28;20056;-65
2021/09/16 06:21:21;;;;;;;2.38;1.05;;;;;;;22.54;61.06;101546.25;5067911;28;20535;-65
2021/09/16 06:23:46;;;;;;;2.72;1.25;;;;;;;22.53;60.98;101553.44;5069224;28;20040;-65
2021/09/16 06:26:12;;;;;;;1.48;0.90;;;;;;;22.53;61.06;101547.28;5066207;28;20131;-65
2021/09/16 06:28:37;;;;;;;3.03;1.23;;;;;;;22.52;60.98;101546.44;5068015;28;20423;-65
2021/09/16 06:31:03;;;;;;;3.08;1.17;;;;;;;22.53;60.94;101553.44;5068799;28;20108;-65
2021/09/16 06:33:29;;;;;;;2.42;1.05;;;;;;;22.54;61.11;101556.94;5068294;28;20050;-65
2021/09/16 06:35:55;;;;;;;2.47;1.13;;;;;;;22.52;61.03;101549.13;5067300;28;20036;-65
2021/09/16 06:38:21;;;;;;;2.40;1.00;;;;;;;22.53;61.19;101544.59;5065330;28;20039;-64
2021/09/16 06:40:46;;;;;;;2.30;1.02;;;;;;;22.53;61.22;101550.78;5068712;28;20380;-66
2021/09/16 06:43:12;;;;;;;2.80;1.20;;;;;;;22.54;61.54;101549.75;5055208;28;20071;-65
2021/09/16 06:45:37;;;;;;;3.33;1.17;;;;;;;22.56;61.20;101549.56;5066568;28;20048;-65
2021/09/16 06:48:03;;;;;;;2.80;1.25;;;;;;;22.57;61.36;101545.88;5067801;28;20040;-64
2021/09/16 06:50:30;;;;;;;3.63;1.40;;;;;;;22.57;61.76;101546.69;5058182;28;20377;-64
2021/09/16 06:52:55;;;;;;;2.90;1.20;;;;;;;22.59;61.57;101549.19;5051344;28;20411;-65
2021/09/16 06:55:21;;;;;;;3.78;1.23;;;;;;;22.59;61.50;101552.69;5066983;28;20043;-64
2021/09/16 06:57:47;;;;;;;2.10;1.08;;;;;;;22.60;61.73;101558.84;5068570;28;20510;-65
2021/09/16 07:00:15;;;;;;;3.95;1.30;;;;;;;22.60;61.83;101554.31;5066293;28;20040;-65
2021/09/16 07:02:40;;;;;;;4.00;1.00;;;;;;;22.60;61.69;101559.66;5067647;28;20044;-65
2021/09/16 07:05:07;;;;;;;4.03;1.42;;;;;;;22.60;61.82;101561.53;5068197;28;20877;-65
2021/09/16 07:07:32;;;;;;;2.88;1.10;;;;;;;22.61;61.99;101561.31;5068671;28;20044;-65
2021/09/16 07:09:58;;;;;;;4.20;1.10;;;;;;;22.62;61.92;101562.97;5068110;28;20383;-65
2021/09/16 07:12:23;;;;;;;4.45;1.25;;;;;;;22.62;61.49;101552.28;5065986;28;20037;-66
2021/09/16 07:14:49;;;;;;;4.32;1.33;;;;;;;22.61;61.81;101553.28;5068841;28;20709;-65
2021/09/16 07:17:15;;;;;;;3.67;1.25;;;;;;;22.61;61.66;101550.63;5064965;28;20040;-65
2021/09/16 07:19:40;;;;;;;6.18;1.50;;;;;;;22.60;61.60;101553.50;5067659;28;20043;-66
2021/09/16 07:22:06;;;;;;;7.55;1.73;;;;;;;22.59;61.47;101551.84;5066830;28;20028;-65
2021/09/16 07:24:32;;;;;;;7.75;1.50;;;;;;;22.58;61.32;101552.88;5068690;28;20040;-66
2021/09/16 07:26:57;;;;;;;4.85;1.58;;;;;;;22.59;61.04;101550.00;5068205;28;20032;-66
2021/09/16 07:29:24;;;;;;;6.68;2.25;;;;;;;22.58;61.32;101551.03;5048174;28;20553;-66
2021/09/16 07:31:51;;;;;;;5.43;1.38;;;;;;;22.59;61.05;101559.88;5067591;28;20146;-66
2021/09/16 07:34:19;;;;;;;4.60;1.40;;;;;;;22.58;61.07;101555.56;5067321;28;20477;-64
2021/09/16 07:36:45;;;;;;;4.97;1.40;;;;;;;22.57;61.01;101552.06;5065757;28;20036;-63
2021/09/16 07:39:15;;;;;;;8.18;1.55;;;;;;;22.59;60.94;101559.88;5057472;28;20404;-64
2021/09/16 07:41:41;;;;;;;5.60;1.48;;;;;;;22.57;61.10;101568.09;5068344;28;20090;-64
2021/09/16 07:44:07;;;;;;;6.53;1.65;;;;;;;22.56;61.08;101566.41;5066234;28;20036;-64
2021/09/16 07:46:33;;;;;;;4.65;1.70;;;;;;;22.56;60.79;101561.06;5063265;28;20098;-64
2021/09/16 07:48:59;;;;;;;5.28;1.92;;;;;;;22.56;60.72;101560.25;5068403;28;20483;-64
2021/09/16 07:51:25;;;;;;;6.22;1.50;;;;;;;22.55;60.78;101559.41;5065415;28;20037;-64
2021/09/16 07:53:51;;;;;;;5.50;1.58;;;;;;;22.55;60.51;101562.09;5049447;28;20127;-64
2021/09/16 07:56:19;;;;;;;6.35;1.85;;;;;;;22.54;60.36;101560.44;5067348;28;20119;-64
2021/09/16 07:58:45;;;;;;;5.03;1.50;;;;;;;22.54;60.28;101562.28;5066166;28;20404;-64
2021/09/16 08:01:12;;;;;;;7.32;1.70;;;;;;;22.53;60.07;101561.47;5064646;28;20099;-64
2021/09/16 08:03:38;;;;;;;9.02;2.08;;;;;;;22.53;59.75;101558.78;5063952;28;20037;-64
2021/09/16 08:06:04;;;;;;;9.25;1.88;;;;;;;22.51;59.66;101555.50;5064566;28;20016;-64
2021/09/16 08:08:30;;;;;;;9.65;2.30;;;;;;;22.52;59.36;101564.34;5064164;28;20578;-64
2021/09/16 08:10:57;;;;;;;11.15;1.98;;;;;;;22.51;59.28;101560.84;5065235;28;20531;-64
2021/09/16 08:13:23;;;;;;;11.23;2.30;;;;;;;22.51;59.07;101562.69;5066336;28;20164;-64
2021/09/16 08:15:48;;;;;;;5.25;1.83;;;;;;;22.50;59.12;101567.22;5066869;28;20183;-64
2021/09/16 08:18:14;;;;;;;6.45;1.90;;;;;;;22.49;58.75;101565.56;5066778;28;20028;-64
2021/09/16 08:20:43;;;;;;;8.07;1.83;;;;;;;22.49;58.87;101565.56;5065742;28;20492;-64
2021/09/16 08:23:09;;;;;;;8.20;2.05;;;;;;;22.49;58.61;101576.25;5067769;28;20095;-64
2021/09/16 08:25:34;;;;;;;7.55;1.67;;;;;;;22.48;58.62;101563.91;5066129;28;20065;-64
2021/09/16 08:28:00;;;;;;;9.20;1.98;;;;;;;22.48;58.20;101571.94;5063307;28;20075;-64
2021/09/16 08:30:26;;;;;;;7.88;2.38;;;;;;;22.48;58.32;101569.28;5067262;28;20788;-64
2021/09/16 08:32:52;;;;;;;10.52;2.63;;;;;;;22.48;58.44;101568.44;5067595;28;20039;-64
2021/09/16 08:35:19;;;;;;;8.80;1.90;;;;;;;22.47;58.03;101559.59;5067214;28;20646;-65
2021/09/16 08:37:46;;;;;;;5.28;1.55;;;;;;;22.47;57.77;101554.25;5067775;28;20541;-64
2021/09/16 08:40:12;;;;;;;6.43;1.73;;;;;;;22.47;57.85;101550.75;5067118;28;20043;-64
2021/09/16 08:42:41;;;;;;;9.48;1.83;;;;;;;22.46;57.75;101544.59;5067662;28;20033;-64
2021/09/16 08:45:11;;;;;;;4.82;1.58;;;;;;;22.46;57.55;101539.25;5066815;28;20475;-64
2021/09/16 08:47:38;;;;;;;4.95;1.52;;;;;;;22.45;57.20;101540.25;5066542;28;20576;-64
2021/09/16 08:50:05;;;;;;;5.65;1.67;;;;;;;22.46;57.21;101546.44;5067088;28;20078;-64
2021/09/16 08:52:36;;;;;;;4.10;1.42;;;;;;;22.47;57.30;101545.41;5067607;28;20550;-64
2021/09/16 08:55:10;;;;;;;6.53;1.50;;;;;;;22.47;57.04;101543.56;5066935;28;20119;-64
2021/09/16 08:57:38;;;;;;;5.43;1.50;;;;;;;22.46;57.12;101541.91;5066363;28;20032;-64
2021/09/16 09:00:17;;;;;;;3.08;1.27;;;;;;;22.45;57.06;101545.59;5066286;28;20043;-64
2021/09/16 09:02:45;;;;;;;6.20;1.80;;;;;;;22.45;56.95;101542.13;5059098;28;20522;-64
2021/09/16 09:05:12;;;;;;;5.75;1.95;;;;;;;22.45;56.69;101542.94;5068864;28;20036;-64
2021/09/16 09:07:43;;;;;;;4.13;1.55;;;;;;;22.44;56.78;101543.97;5070871;28;20028;-65
2021/09/16 09:10:11;;;;;;;3.65;1.50;;;;;;;22.44;56.50;101548.47;5068541;28;20495;-64
2021/09/16 09:12:38;;;;;;;3.72;1.30;;;;;;;22.43;56.17;101547.66;5057053;28;20498;-64
2021/09/16 09:15:07;;;;;;;4.18;1.40;;;;;;;22.44;56.19;101546.63;5070086;28;20039;-64
2021/09/16 09:17:34;;;;;;;3.25;1.40;;;;;;;22.44;56.39;101553.84;5070666;28;20039;-64
2021/09/16 09:20:08;;;;;;;4.32;1.35;;;;;;;22.43;56.20;101550.34;5070327;28;20029;-65
2021/09/16 09:22:37;;;;;;;5.07;1.45;;;;;;;22.42;56.06;101549.50;5070409;28;20490;-64
2021/09/16 09:25:08;;;;;;;5.82;1.17;;;;;;;22.42;56.37;101540.66;5070183;28;20040;-64
2021/09/16 09:27:48;;;;;;;4.82;1.50;;;;;;;22.40;56.46;101542.69;5070662;28;20475;-64
2021/09/16 09:30:19;;;;;;;3.88;1.25;;;;;;;22.43;56.26;101542.31;5069941;28;20051;-64
2021/09/16 09:32:57;;;;;;;4.97;1.33;;;;;;;22.41;55.96;101541.69;5070590;28;20029;-64
2021/09/16 09:35:29;;;;;;;2.85;1.10;;;;;;;22.41;55.90;101536.34;5070135;28;20135;-64
2021/09/16 09:37:56;;;;;;;5.18;1.65;;;;;;;22.42;56.08;101530.78;5070217;28;20059;-64
2021/09/16 09:40:39;;;;;;;3.92;1.40;;;;;;;22.40;56.04;101537.34;5070460;28;20044;-65
2021/09/16 09:43:29;;;;;;;3.70;1.30;;;;;;;22.38;56.29;101526.03;5069500;28;20394;-64
2021/09/16 09:46:16;;;;;;;4.10;1.20;;;;;;;22.39;56.14;101525.00;5068605;28;20790;-64
2021/09/16 09:49:02;;;;;;;4.68;1.00;;;;;;;22.37;56.21;101530.53;5070216;28;20169;-64
2021/09/16 09:51:45;;;;;;;4.32;1.40;;;;;;;22.38;55.59;101532.19;5069940;28;20464;-64
2021/09/16 09:54:24;;;;;;;3.50;1.27;;;;;;;22.39;55.48;101533.00;5058483;28;20039;-64
2021/09/16 09:57:04;;;;;;;3.65;1.33;;;;;;;22.38;55.09;101539.38;5068179;28;20666;-64
2021/09/16 09:59:48;;;;;;;3.20;1.23;;;;;;;22.35;55.35;101540.59;5070191;28;20020;-64
2021/09/16 10:02:14;;;;;;;;;;;;;;;22.30;55.43;101532.38;5069217;28;20017;-64
2021/09/16 10:04:42;;;;;;;3.70;1.08;;;;;;;22.38;55.29;101537.53;5070278;28;19919;-65
2021/09/16 10:07:07;;;;;;;3.90;1.20;;;;;;;22.40;55.13;101534.66;5068742;28;20059;-65
2021/09/16 10:09:33;;;;;;;4.15;1.10;;;;;;;22.40;55.18;101534.66;5069521;28;20075;-64
2021/09/16 10:11:59;;;;;;;3.60;1.33;;;;;;;22.41;55.18;101534.50;5048875;28;20040;-64
2021/09/16 10:14:25;;;;;;;2.55;0.98;;;;;;;22.42;54.86;101535.31;5068827;28;20420;-64
2021/09/16 10:16:50;;;;;;;4.07;1.00;;;;;;;22.41;54.59;101528.31;5069146;28;20060;-64
2021/09/16 10:19:16;;;;;;;2.55;0.90;;;;;;;22.41;54.68;101525.66;5068645;28;20039;-64
2021/09/16 10:21:42;;;;;;;4.70;1.10;;;;;;;22.40;54.38;101526.66;5069421;28;20048;-64
2021/09/16 10:24:13;;;;;;;3.65;1.00;;;;;;;22.41;54.48;101525.66;5067578;28;20025;-64
2021/09/16 10:26:42;;;;;;;4.10;0.80;;;;;;;22.40;54.35;101523.97;5069007;28;20518;-64
2021/09/16 10:29:27;;;;;;;3.35;1.00;;;;;;;22.35;54.14;101521.91;5068433;28;20647;-64
2021/09/16 10:32:05;;;;;;;2.50;1.15;;;;;;;22.35;53.65;101521.06;5069014;28;20036;-64
2021/09/16 10:34:58;;;;;;;3.58;1.20;;;;;;;22.33;53.48;101520.44;5068996;28;20525;-64
2021/09/16 10:37:33;;;;;;;3.78;0.98;;;;;;;22.34;53.22;101519.44;5067283;28;20353;-64
2021/09/16 10:39:59;;;;;;;4.20;1.30;;;;;;;22.32;53.11;101516.94;5069818;28;20480;-64
2021/09/16 10:42:53;;;;;;;4.45;1.33;;;;;;;22.28;53.11;101512.22;5069092;28;20032;-64
2021/09/16 10:45:37;;;;;;;3.42;1.00;;;;;;;22.28;53.14;101514.88;5068561;28;20054;-65
2021/09/16 10:48:17;;;;;;;3.95;1.23;;;;;;;22.28;52.95;101514.88;5069279;28;20079;-65
2021/09/16 10:50:46;;;;;;;2.22;0.95;;;;;;;22.30;52.64;101507.50;5056511;28;20471;-65
2021/09/16 10:53:33;;;;;;;2.80;1.17;;;;;;;22.25;52.62;101507.22;5068751;28;20484;-65
2021/09/16 10:55:59;;;;;;;1.75;0.80;;;;;;;22.28;52.73;101504.19;5069076;28;20105;-65
2021/09/16 10:58:26;;;;;;;3.47;1.10;;;;;;;22.28;52.72;101507.69;5068554;28;20108;-64
2021/09/16 11:00:52;;;;;;;3.42;1.00;;;;;;;22.28;52.85;101505.00;5066406;28;20047;-65
2021/09/16 11:03:18;;;;;;;2.78;1.17;;;;;;;22.28;52.72;101501.53;5067390;28;20032;-65
2021/09/16 11:05:53;;;;;;;3.10;1.20;;;;;;;22.26;52.59;101506.25;5068229;28;20424;-65
2021/09/16 11:08:21;;;;;;;2.25;0.90;;;;;;;22.28;52.71;101501.53;5068674;28;20440;-65
2021/09/16 11:10:49;;;;;;;2.00;0.90;;;;;;;22.26;52.62;101488.34;5068075;28;20746;-65
2021/09/16 11:13:34;;;;;;;2.15;0.90;;;;;;;22.22;52.57;101492.41;5068523;28;20106;-65
2021/09/16 11:16:00;;;;;;;4.32;0.80;;;;;;;22.25;52.74;101488.53;5068137;28;20029;-65
2021/09/16 11:18:26;;;;;;;2.70;0.90;;;;;;;22.26;52.35;101492.88;5068793;28;20137;-65
2021/09/16 11:21:01;;;;;;;2.20;0.82;;;;;;;22.23;52.83;101485.22;5067874;28;20249;-65
2021/09/16 11:23:43;;;;;;;2.47;1.08;;;;;;;22.21;52.78;101479.25;5068904;28;20029;-65
2021/09/16 11:26:19;;;;;;;2.63;1.10;;;;;;;22.23;52.82;101477.22;5065441;28;20097;-65